sensor_id;sensor_type;location;lat;lon;timestamp;temperature;humidity
52211;DHT22;38179;52.756;6.906;2023-05-10T00:01:52;13.50;99.90
52211;DHT22;38179;52.756;6.906;2023-05-10T00:04:18;13.50;99.90
52211;DHT22;38179;52.756;6.906;2023-05-10T00:06:43;13.50;99.90
52211;DHT22;38179;52.756;6.906;2023-05-10T00:09:09;13.40;99.90
52211;DHT22;38179;52.756;6.906;2023-05-10T00:11:35;13.40;99.90
52211;DHT22;38179;52.756;6.906;2023-05-10T00:14:01;13.30;99.90
52211;DHT22;38179;52.756;6.906;2023-05-10T00:16:27;13.20;99.90
52211;DHT22;38179;52.756;6.906;2023-05-10T00:18:53;13.10;99.90
52211;DHT22;38179;52.756;6.906;2023-05-10T00:21:19;13.20;99.90
52211;DHT22;38179;52.756;6.906;2023-05-10T00:23:44;13.10;99.90
52211;DHT22;38179;52.756;6.906;2023-05-10T00:26:10;13.00;99.90
52211;DHT22;38179;52.756;6.906;2023-05-10T00:28:36;13.00;99.90
52211;DHT22;38179;52.756;6.906;2023-05-10T00:31:02;12.90;99.90
52211;DHT22;38179;52.756;6.906;2023-05-10T00:33:28;12.90;99.90
52211;DHT22;38179;52.756;6.906;2023-05-10T00:35:54;12.90;99.90
52211;DHT22;38179;52.756;6.906;2023-05-10T00:38:20;12.90;99.90
52211;DHT22;38179;52.756;6.906;2023-05-10T00:40:46;12.90;99.90
52211;DHT22;38179;52.756;6.906;2023-05-10T00:43:12;12.80;99.90
52211;DHT22;38179;52.756;6.906;2023-05-10T00:45:40;12.80;99.90
52211;DHT22;38179;52.756;6.906;2023-05-10T00:48:06;12.80;99.90
52211;DHT22;38179;52.756;6.906;2023-05-10T00:50:32;12.80;99.90
52211;DHT22;38179;52.756;6.906;2023-05-10T00:52:59;12.80;99.90
52211;DHT22;38179;52.756;6.906;2023-05-10T00:55:26;12.70;99.90
52211;DHT22;38179;52.756;6.906;2023-05-10T00:57:53;12.70;99.90
52211;DHT22;38179;52.756;6.906;2023-05-10T01:00:19;12.70;99.90
52211;DHT22;38179;52.756;6.906;2023-05-10T01:02:46;12.70;99.90
52211;DHT22;38179;52.756;6.906;2023-05-10T01:05:12;12.70;99.90
52211;DHT22;38179;52.756;6.906;2023-05-10T01:07:39;12.70;99.90
52211;DHT22;38179;52.756;6.906;2023-05-10T01:10:08;12.70;99.90
52211;DHT22;38179;52.756;6.906;2023-05-10T01:12:38;12.70;99.90
52211;DHT22;38179;52.756;6.906;2023-05-10T01:15:06;12.70;99.90
52211;DHT22;38179;52.756;6.906;2023-05-10T01:17:35;12.70;99.90
52211;DHT22;38179;52.756;6.906;2023-05-10T01:20:01;12.70;99.90
52211;DHT22;38179;52.756;6.906;2023-05-10T01:33:43;12.70;99.90
52211;DHT22;38179;52.756;6.906;2023-05-10T01:41:47;12.60;99.90
52211;DHT22;38179;52.756;6.906;2023-05-10T01:44:32;12.60;99.90
52211;DHT22;38179;52.756;6.906;2023-05-10T01:47:05;12.60;99.90
52211;DHT22;38179;52.756;6.906;2023-05-10T01:49:39;12.60;99.90
52211;DHT22;38179;52.756;6.906;2023-05-10T01:52:09;12.70;99.90
52211;DHT22;38179;52.756;6.906;2023-05-10T01:54:41;12.60;99.90
52211;DHT22;38179;52.756;6.906;2023-05-10T01:57:09;12.60;99.90
52211;DHT22;38179;52.756;6.906;2023-05-10T01:59:39;12.60;99.90
52211;DHT22;38179;52.756;6.906;2023-05-10T02:02:10;12.60;99.90
52211;DHT22;38179;52.756;6.906;2023-05-10T02:04:39;12.60;99.90
52211;DHT22;38179;52.756;6.906;2023-05-10T02:07:06;12.60;99.90
52211;DHT22;38179;52.756;6.906;2023-05-10T02:09:33;12.60;99.90
52211;DHT22;38179;52.756;6.906;2023-05-10T02:12:02;12.60;99.90
52211;DHT22;38179;52.756;6.906;2023-05-10T02:14:34;12.60;99.90
52211;DHT22;38179;52.756;6.906;2023-05-10T02:17:02;12.50;99.90
52211;DHT22;38179;52.756;6.906;2023-05-10T02:19:30;12.50;99.90
52211;DHT22;38179;52.756;6.906;2023-05-10T02:21:57;12.50;99.90
52211;DHT22;38179;52.756;6.906;2023-05-10T02:24:25;12.50;99.90
52211;DHT22;38179;52.756;6.906;2023-05-10T02:26:53;12.50;99.90
52211;DHT22;38179;52.756;6.906;2023-05-10T02:29:24;12.50;99.90
52211;DHT22;38179;52.756;6.906;2023-05-10T02:31:53;12.50;99.90
52211;DHT22;38179;52.756;6.906;2023-05-10T02:34:21;12.50;99.90
52211;DHT22;38179;52.756;6.906;2023-05-10T02:36:50;12.50;99.90
52211;DHT22;38179;52.756;6.906;2023-05-10T02:39:21;12.50;99.90
52211;DHT22;38179;52.756;6.906;2023-05-10T02:41:49;12.50;99.90
52211;DHT22;38179;52.756;6.906;2023-05-10T02:44:18;12.50;99.90
52211;DHT22;38179;52.756;6.906;2023-05-10T02:46:45;12.50;99.90
52211;DHT22;38179;52.756;6.906;2023-05-10T02:49:11;12.40;99.90
52211;DHT22;38179;52.756;6.906;2023-05-10T02:51:45;12.40;99.90
52211;DHT22;38179;52.756;6.906;2023-05-10T02:54:18;12.40;99.90
52211;DHT22;38179;52.756;6.906;2023-05-10T02:56:50;12.40;99.90
52211;DHT22;38179;52.756;6.906;2023-05-10T02:59:18;12.40;99.90
52211;DHT22;38179;52.756;6.906;2023-05-10T03:01:44;12.40;99.90
52211;DHT22;38179;52.756;6.906;2023-05-10T03:04:10;12.40;99.90
52211;DHT22;38179;52.756;6.906;2023-05-10T03:06:36;12.40;99.90
52211;DHT22;38179;52.756;6.906;2023-05-10T03:09:02;12.40;99.90
52211;DHT22;38179;52.756;6.906;2023-05-10T03:11:35;12.40;99.90
52211;DHT22;38179;52.756;6.906;2023-05-10T03:14:34;12.40;99.90
52211;DHT22;38179;52.756;6.906;2023-05-10T03:17:09;12.40;99.90
52211;DHT22;38179;52.756;6.906;2023-05-10T03:22:11;12.30;99.90
52211;DHT22;38179;52.756;6.906;2023-05-10T03:24:41;12.30;99.90
52211;DHT22;38179;52.756;6.906;2023-05-10T03:27:08;12.20;99.90
52211;DHT22;38179;52.756;6.906;2023-05-10T03:29:35;12.30;99.90
52211;DHT22;38179;52.756;6.906;2023-05-10T03:32:02;12.30;99.90
52211;DHT22;38179;52.756;6.906;2023-05-10T03:34:30;12.30;99.90
52211;DHT22;38179;52.756;6.906;2023-05-10T03:36:56;12.30;99.90
52211;DHT22;38179;52.756;6.906;2023-05-10T03:39:22;12.30;99.90
52211;DHT22;38179;52.756;6.906;2023-05-10T03:41:51;12.30;99.90
52211;DHT22;38179;52.756;6.906;2023-05-10T03:44:17;13.00;99.90
52211;DHT22;38179;52.756;6.906;2023-05-10T03:46:42;12.30;99.90
52211;DHT22;38179;52.756;6.906;2023-05-10T03:49:08;12.30;99.90
52211;DHT22;38179;52.756;6.906;2023-05-10T03:51:34;12.30;99.90
52211;DHT22;38179;52.756;6.906;2023-05-10T03:54:00;12.30;99.90
52211;DHT22;38179;52.756;6.906;2023-05-10T03:56:26;12.30;99.90
52211;DHT22;38179;52.756;6.906;2023-05-10T03:58:52;12.30;99.90
52211;DHT22;38179;52.756;6.906;2023-05-10T04:01:18;12.30;99.90
52211;DHT22;38179;52.756;6.906;2023-05-10T04:03:43;12.30;99.90
52211;DHT22;38179;52.756;6.906;2023-05-10T04:06:10;12.30;99.90
52211;DHT22;38179;52.756;6.906;2023-05-10T04:08:37;12.20;99.90
52211;DHT22;38179;52.756;6.906;2023-05-10T04:11:10;12.20;99.90
52211;DHT22;38179;52.756;6.906;2023-05-10T04:13:36;12.20;99.90
52211;DHT22;38179;52.756;6.906;2023-05-10T04:16:03;12.20;99.90
52211;DHT22;38179;52.756;6.906;2023-05-10T04:18:29;12.20;99.90
52211;DHT22;38179;52.756;6.906;2023-05-10T04:20:55;12.20;99.90
52211;DHT22;38179;52.756;6.906;2023-05-10T04:23:20;12.20;99.90
52211;DHT22;38179;52.756;6.906;2023-05-10T04:25:46;12.10;99.90
52211;DHT22;38179;52.756;6.906;2023-05-10T04:28:13;12.10;99.90
52211;DHT22;38179;52.756;6.906;2023-05-10T04:30:39;12.10;99.90
52211;DHT22;38179;52.756;6.906;2023-05-10T04:33:04;12.10;99.90
52211;DHT22;38179;52.756;6.906;2023-05-10T04:35:30;12.10;99.90
52211;DHT22;38179;52.756;6.906;2023-05-10T04:37:56;12.10;99.90
52211;DHT22;38179;52.756;6.906;2023-05-10T04:40:22;12.10;99.90
52211;DHT22;38179;52.756;6.906;2023-05-10T04:42:48;12.20;99.90
52211;DHT22;38179;52.756;6.906;2023-05-10T04:45:14;12.20;99.90
52211;DHT22;38179;52.756;6.906;2023-05-10T04:47:43;12.10;99.90
52211;DHT22;38179;52.756;6.906;2023-05-10T04:50:09;12.20;99.90
52211;DHT22;38179;52.756;6.906;2023-05-10T04:52:35;12.20;99.90
52211;DHT22;38179;52.756;6.906;2023-05-10T04:55:01;12.20;99.90
52211;DHT22;38179;52.756;6.906;2023-05-10T04:57:27;12.30;99.90
52211;DHT22;38179;52.756;6.906;2023-05-10T04:59:53;12.20;99.90
52211;DHT22;38179;52.756;6.906;2023-05-10T05:02:19;12.30;99.90
52211;DHT22;38179;52.756;6.906;2023-05-10T05:04:45;12.30;99.90
52211;DHT22;38179;52.756;6.906;2023-05-10T05:07:11;12.20;99.90
52211;DHT22;38179;52.756;6.906;2023-05-10T05:09:37;12.30;99.90
52211;DHT22;38179;52.756;6.906;2023-05-10T05:12:03;12.20;99.90
52211;DHT22;38179;52.756;6.906;2023-05-10T05:14:29;12.20;99.90
52211;DHT22;38179;52.756;6.906;2023-05-10T05:16:55;12.20;99.90
52211;DHT22;38179;52.756;6.906;2023-05-10T05:19:22;12.20;99.90
52211;DHT22;38179;52.756;6.906;2023-05-10T05:21:48;12.20;99.90
52211;DHT22;38179;52.756;6.906;2023-05-10T05:24:14;12.20;99.90
52211;DHT22;38179;52.756;6.906;2023-05-10T05:26:40;12.20;99.90
52211;DHT22;38179;52.756;6.906;2023-05-10T05:29:06;12.20;99.90
52211;DHT22;38179;52.756;6.906;2023-05-10T05:31:31;12.20;99.90
52211;DHT22;38179;52.756;6.906;2023-05-10T05:33:57;12.20;99.90
52211;DHT22;38179;52.756;6.906;2023-05-10T05:36:23;12.10;99.90
52211;DHT22;38179;52.756;6.906;2023-05-10T05:38:49;12.10;99.90
52211;DHT22;38179;52.756;6.906;2023-05-10T05:41:15;12.20;99.90
52211;DHT22;38179;52.756;6.906;2023-05-10T05:43:41;12.10;99.90
52211;DHT22;38179;52.756;6.906;2023-05-10T05:46:07;12.10;99.90
52211;DHT22;38179;52.756;6.906;2023-05-10T05:48:33;12.10;99.90
52211;DHT22;38179;52.756;6.906;2023-05-10T05:50:59;12.10;99.90
52211;DHT22;38179;52.756;6.906;2023-05-10T05:53:25;12.10;99.90
52211;DHT22;38179;52.756;6.906;2023-05-10T05:55:53;12.10;99.90
52211;DHT22;38179;52.756;6.906;2023-05-10T05:58:20;12.20;99.90
52211;DHT22;38179;52.756;6.906;2023-05-10T06:00:46;12.20;99.90
52211;DHT22;38179;52.756;6.906;2023-05-10T06:03:12;12.20;99.90
52211;DHT22;38179;52.756;6.906;2023-05-10T06:05:38;12.20;99.90
52211;DHT22;38179;52.756;6.906;2023-05-10T06:08:04;12.20;99.90
52211;DHT22;38179;52.756;6.906;2023-05-10T06:10:30;12.20;99.90
52211;DHT22;38179;52.756;6.906;2023-05-10T06:12:56;12.20;99.90
52211;DHT22;38179;52.756;6.906;2023-05-10T06:15:22;12.20;99.90
52211;DHT22;38179;52.756;6.906;2023-05-10T06:17:48;12.20;99.90
52211;DHT22;38179;52.756;6.906;2023-05-10T06:20:15;12.30;99.90
52211;DHT22;38179;52.756;6.906;2023-05-10T06:22:41;12.30;99.90
52211;DHT22;38179;52.756;6.906;2023-05-10T06:25:08;12.30;99.90
52211;DHT22;38179;52.756;6.906;2023-05-10T06:27:34;12.30;99.90
52211;DHT22;38179;52.756;6.906;2023-05-10T06:30:00;12.30;99.90
52211;DHT22;38179;52.756;6.906;2023-05-10T06:32:26;12.30;99.90
52211;DHT22;38179;52.756;6.906;2023-05-10T06:34:52;12.30;99.90
52211;DHT22;38179;52.756;6.906;2023-05-10T06:37:18;12.30;99.90
52211;DHT22;38179;52.756;6.906;2023-05-10T06:39:44;12.30;99.90
52211;DHT22;38179;52.756;6.906;2023-05-10T06:42:10;12.40;99.90
52211;DHT22;38179;52.756;6.906;2023-05-10T06:44:36;12.40;99.90
52211;DHT22;38179;52.756;6.906;2023-05-10T06:47:01;12.40;99.90
52211;DHT22;38179;52.756;6.906;2023-05-10T06:49:27;12.50;99.90
52211;DHT22;38179;52.756;6.906;2023-05-10T06:51:57;12.50;99.90
52211;DHT22;38179;52.756;6.906;2023-05-10T06:54:24;12.50;99.90
52211;DHT22;38179;52.756;6.906;2023-05-10T06:56:50;12.50;99.90
52211;DHT22;38179;52.756;6.906;2023-05-10T06:59:15;12.60;99.90
52211;DHT22;38179;52.756;6.906;2023-05-10T07:01:42;12.50;99.90
52211;DHT22;38179;52.756;6.906;2023-05-10T07:04:08;12.60;99.90
52211;DHT22;38179;52.756;6.906;2023-05-10T07:06:34;12.50;99.90
52211;DHT22;38179;52.756;6.906;2023-05-10T07:09:00;12.60;99.90
52211;DHT22;38179;52.756;6.906;2023-05-10T07:11:26;12.60;99.90
52211;DHT22;38179;52.756;6.906;2023-05-10T07:13:52;12.60;99.90
52211;DHT22;38179;52.756;6.906;2023-05-10T07:16:18;12.60;99.90
52211;DHT22;38179;52.756;6.906;2023-05-10T07:18:45;12.60;99.90
52211;DHT22;38179;52.756;6.906;2023-05-10T07:21:10;12.60;99.90
52211;DHT22;38179;52.756;6.906;2023-05-10T07:23:36;12.60;99.90
52211;DHT22;38179;52.756;6.906;2023-05-10T07:26:03;12.60;99.90
52211;DHT22;38179;52.756;6.906;2023-05-10T07:28:29;12.60;99.90
52211;DHT22;38179;52.756;6.906;2023-05-10T07:30:55;12.60;99.90
52211;DHT22;38179;52.756;6.906;2023-05-10T07:33:22;12.60;99.90
52211;DHT22;38179;52.756;6.906;2023-05-10T07:35:47;12.60;99.90
52211;DHT22;38179;52.756;6.906;2023-05-10T07:38:16;12.70;99.90
52211;DHT22;38179;52.756;6.906;2023-05-10T07:40:43;12.70;99.90
52211;DHT22;38179;52.756;6.906;2023-05-10T07:43:08;12.70;99.90
52211;DHT22;38179;52.756;6.906;2023-05-10T07:45:34;12.70;99.90
52211;DHT22;38179;52.756;6.906;2023-05-10T07:48:00;12.80;99.90
52211;DHT22;38179;52.756;6.906;2023-05-10T07:50:26;12.70;99.90
52211;DHT22;38179;52.756;6.906;2023-05-10T07:52:52;12.70;99.90
52211;DHT22;38179;52.756;6.906;2023-05-10T07:55:19;12.70;99.90
52211;DHT22;38179;52.756;6.906;2023-05-10T07:57:46;12.70;99.90
52211;DHT22;38179;52.756;6.906;2023-05-10T08:00:13;12.70;99.90
52211;DHT22;38179;52.756;6.906;2023-05-10T08:02:42;12.70;99.90
52211;DHT22;38179;52.756;6.906;2023-05-10T08:05:11;12.80;99.90
52211;DHT22;38179;52.756;6.906;2023-05-10T08:07:37;12.80;99.90
52211;DHT22;38179;52.756;6.906;2023-05-10T08:10:03;12.80;99.90
52211;DHT22;38179;52.756;6.906;2023-05-10T08:12:29;12.90;99.90
52211;DHT22;38179;52.756;6.906;2023-05-10T08:14:56;12.90;99.90
52211;DHT22;38179;52.756;6.906;2023-05-10T08:17:22;13.00;99.90
52211;DHT22;38179;52.756;6.906;2023-05-10T08:19:48;13.00;99.90
52211;DHT22;38179;52.756;6.906;2023-05-10T08:22:14;13.10;99.90
52211;DHT22;38179;52.756;6.906;2023-05-10T08:24:40;13.10;99.90
52211;DHT22;38179;52.756;6.906;2023-05-10T08:27:08;13.10;99.90
52211;DHT22;38179;52.756;6.906;2023-05-10T08:29:34;13.10;99.90
52211;DHT22;38179;52.756;6.906;2023-05-10T08:32:00;13.10;99.90
52211;DHT22;38179;52.756;6.906;2023-05-10T08:34:27;13.10;99.90
52211;DHT22;38179;52.756;6.906;2023-05-10T08:36:53;13.10;99.90
52211;DHT22;38179;52.756;6.906;2023-05-10T08:39:19;13.20;99.90
52211;DHT22;38179;52.756;6.906;2023-05-10T08:41:46;13.10;99.90
52211;DHT22;38179;52.756;6.906;2023-05-10T08:44:13;13.20;99.90
52211;DHT22;38179;52.756;6.906;2023-05-10T08:46:41;13.20;99.90
52211;DHT22;38179;52.756;6.906;2023-05-10T08:49:13;13.20;99.90
52211;DHT22;38179;52.756;6.906;2023-05-10T08:52:05;13.20;99.90
52211;DHT22;38179;52.756;6.906;2023-05-10T08:54:33;13.10;99.90
52211;DHT22;38179;52.756;6.906;2023-05-10T08:57:00;13.10;99.90
52211;DHT22;38179;52.756;6.906;2023-05-10T08:59:26;13.10;99.90
52211;DHT22;38179;52.756;6.906;2023-05-10T09:01:55;13.10;99.90
52211;DHT22;38179;52.756;6.906;2023-05-10T09:04:21;13.10;99.90
52211;DHT22;38179;52.756;6.906;2023-05-10T09:06:50;13.10;99.90
52211;DHT22;38179;52.756;6.906;2023-05-10T09:09:17;13.10;99.90
52211;DHT22;38179;52.756;6.906;2023-05-10T09:11:44;13.10;99.90
52211;DHT22;38179;52.756;6.906;2023-05-10T09:14:11;13.10;99.90
52211;DHT22;38179;52.756;6.906;2023-05-10T09:16:40;13.20;99.90
52211;DHT22;38179;52.756;6.906;2023-05-10T09:19:06;13.20;99.90
52211;DHT22;38179;52.756;6.906;2023-05-10T09:21:35;13.30;99.90
52211;DHT22;38179;52.756;6.906;2023-05-10T09:24:05;13.30;99.90
52211;DHT22;38179;52.756;6.906;2023-05-10T09:26:31;13.30;99.90
52211;DHT22;38179;52.756;6.906;2023-05-10T09:28:59;13.30;99.90
52211;DHT22;38179;52.756;6.906;2023-05-10T09:31:44;13.40;99.90
52211;DHT22;38179;52.756;6.906;2023-05-10T09:34:15;13.40;99.90
52211;DHT22;38179;52.756;6.906;2023-05-10T09:36:55;13.30;99.90
52211;DHT22;38179;52.756;6.906;2023-05-10T09:39:33;13.30;99.90
52211;DHT22;38179;52.756;6.906;2023-05-10T09:42:05;13.30;99.90
52211;DHT22;38179;52.756;6.906;2023-05-10T09:44:33;13.40;99.90
52211;DHT22;38179;52.756;6.906;2023-05-10T09:47:00;13.30;99.90
52211;DHT22;38179;52.756;6.906;2023-05-10T09:49:27;13.40;99.90
52211;DHT22;38179;52.756;6.906;2023-05-10T09:52:03;13.50;99.90
52211;DHT22;38179;52.756;6.906;2023-05-10T09:54:29;13.50;99.90
52211;DHT22;38179;52.756;6.906;2023-05-10T09:56:55;13.60;99.90
52211;DHT22;38179;52.756;6.906;2023-05-10T09:59:21;13.70;99.90
52211;DHT22;38179;52.756;6.906;2023-05-10T10:01:51;13.80;99.90
52211;DHT22;38179;52.756;6.906;2023-05-10T10:04:17;13.90;99.90
52211;DHT22;38179;52.756;6.906;2023-05-10T10:06:43;13.90;99.90
52211;DHT22;38179;52.756;6.906;2023-05-10T10:09:09;13.90;99.90
52211;DHT22;38179;52.756;6.906;2023-05-10T10:14:29;14.00;99.90
52211;DHT22;38179;52.756;6.906;2023-05-10T10:17:32;14.00;99.90
52211;DHT22;38179;52.756;6.906;2023-05-10T10:20:02;14.00;99.90
52211;DHT22;38179;52.756;6.906;2023-05-10T10:22:28;14.10;99.90
52211;DHT22;38179;52.756;6.906;2023-05-10T10:24:55;14.10;99.90
52211;DHT22;38179;52.756;6.906;2023-05-10T10:27:31;14.10;99.90
52211;DHT22;38179;52.756;6.906;2023-05-10T10:32:55;14.00;99.90
52211;DHT22;38179;52.756;6.906;2023-05-10T10:35:26;14.00;99.90
52211;DHT22;38179;52.756;6.906;2023-05-10T10:37:51;14.10;99.90
52211;DHT22;38179;52.756;6.906;2023-05-10T10:40:27;14.10;99.90
52211;DHT22;38179;52.756;6.906;2023-05-10T10:42:54;14.10;99.90
52211;DHT22;38179;52.756;6.906;2023-05-10T10:45:21;14.10;99.90
52211;DHT22;38179;52.756;6.906;2023-05-10T10:47:47;14.10;99.90
52211;DHT22;38179;52.756;6.906;2023-05-10T10:50:14;14.20;99.90
52211;DHT22;38179;52.756;6.906;2023-05-10T10:52:44;14.20;99.90
52211;DHT22;38179;52.756;6.906;2023-05-10T10:55:13;14.20;99.90
52211;DHT22;38179;52.756;6.906;2023-05-10T10:57:53;14.20;99.90
52211;DHT22;38179;52.756;6.906;2023-05-10T11:00:33;14.20;99.90
52211;DHT22;38179;52.756;6.906;2023-05-10T11:03:11;14.20;99.90
52211;DHT22;38179;52.756;6.906;2023-05-10T11:08:10;14.30;99.90
52211;DHT22;38179;52.756;6.906;2023-05-10T11:10:36;14.30;99.90
52211;DHT22;38179;52.756;6.906;2023-05-10T11:13:06;14.20;99.90
52211;DHT22;38179;52.756;6.906;2023-05-10T11:15:37;14.20;99.90
52211;DHT22;38179;52.756;6.906;2023-05-10T11:18:29;14.20;99.90
52211;DHT22;38179;52.756;6.906;2023-05-10T11:21:01;14.20;99.90
52211;DHT22;38179;52.756;6.906;2023-05-10T11:26:12;14.20;99.90
52211;DHT22;38179;52.756;6.906;2023-05-10T11:28:47;14.20;99.90
52211;DHT22;38179;52.756;6.906;2023-05-10T11:31:15;14.20;99.90
52211;DHT22;38179;52.756;6.906;2023-05-10T11:36:15;14.40;99.90
52211;DHT22;38179;52.756;6.906;2023-05-10T11:38:41;14.40;99.90
52211;DHT22;38179;52.756;6.906;2023-05-10T11:41:11;14.50;99.90
52211;DHT22;38179;52.756;6.906;2023-05-10T11:43:41;14.50;99.90
52211;DHT22;38179;52.756;6.906;2023-05-10T11:46:09;14.50;99.90
52211;DHT22;38179;52.756;6.906;2023-05-10T11:48:36;14.60;99.90
52211;DHT22;38179;52.756;6.906;2023-05-10T11:51:02;14.60;99.90
52211;DHT22;38179;52.756;6.906;2023-05-10T11:53:31;14.60;99.90
52211;DHT22;38179;52.756;6.906;2023-05-10T11:56:08;14.60;99.90
52211;DHT22;38179;52.756;6.906;2023-05-10T11:58:35;14.60;99.90
52211;DHT22;38179;52.756;6.906;2023-05-10T12:01:02;14.60;99.90
52211;DHT22;38179;52.756;6.906;2023-05-10T12:03:29;14.60;99.90
52211;DHT22;38179;52.756;6.906;2023-05-10T12:05:56;14.60;99.90
52211;DHT22;38179;52.756;6.906;2023-05-10T12:08:25;14.60;99.90
52211;DHT22;38179;52.756;6.906;2023-05-10T12:10:52;14.70;99.90
52211;DHT22;38179;52.756;6.906;2023-05-10T12:13:20;14.70;99.90
52211;DHT22;38179;52.756;6.906;2023-05-10T12:15:46;14.70;99.90
52211;DHT22;38179;52.756;6.906;2023-05-10T12:18:13;14.70;99.90
52211;DHT22;38179;52.756;6.906;2023-05-10T12:20:40;14.60;99.90
52211;DHT22;38179;52.756;6.906;2023-05-10T12:23:09;14.70;99.90
52211;DHT22;38179;52.756;6.906;2023-05-10T12:25:36;14.70;99.90
52211;DHT22;38179;52.756;6.906;2023-05-10T12:28:04;14.70;99.90
52211;DHT22;38179;52.756;6.906;2023-05-10T12:30:35;14.70;99.90
52211;DHT22;38179;52.756;6.906;2023-05-10T12:33:17;14.70;99.90
52211;DHT22;38179;52.756;6.906;2023-05-10T12:35:51;14.60;99.90
52211;DHT22;38179;52.756;6.906;2023-05-10T12:43:46;14.50;99.90
52211;DHT22;38179;52.756;6.906;2023-05-10T12:46:14;14.50;99.90
52211;DHT22;38179;52.756;6.906;2023-05-10T12:48:41;14.50;99.90
52211;DHT22;38179;52.756;6.906;2023-05-10T12:51:07;14.50;99.90
52211;DHT22;38179;52.756;6.906;2023-05-10T12:53:42;14.50;99.90
52211;DHT22;38179;52.756;6.906;2023-05-10T12:56:11;14.60;99.90
52211;DHT22;38179;52.756;6.906;2023-05-10T12:58:38;14.60;99.90
52211;DHT22;38179;52.756;6.906;2023-05-10T13:01:05;14.60;99.90
52211;DHT22;38179;52.756;6.906;2023-05-10T13:03:31;14.70;99.90
52211;DHT22;38179;52.756;6.906;2023-05-10T13:05:58;14.70;99.90
52211;DHT22;38179;52.756;6.906;2023-05-10T13:08:24;14.70;99.90
52211;DHT22;38179;52.756;6.906;2023-05-10T13:10:50;14.70;99.90
52211;DHT22;38179;52.756;6.906;2023-05-10T13:13:16;14.70;99.90
52211;DHT22;38179;52.756;6.906;2023-05-10T13:15:43;14.80;99.90
52211;DHT22;38179;52.756;6.906;2023-05-10T13:18:09;14.80;99.90
52211;DHT22;38179;52.756;6.906;2023-05-10T13:20:35;14.80;99.90
52211;DHT22;38179;52.756;6.906;2023-05-10T13:23:01;14.80;99.90
52211;DHT22;38179;52.756;6.906;2023-05-10T13:25:28;14.90;99.90
52211;DHT22;38179;52.756;6.906;2023-05-10T13:27:54;15.00;99.90
52211;DHT22;38179;52.756;6.906;2023-05-10T13:30:20;14.90;99.90
52211;DHT22;38179;52.756;6.906;2023-05-10T13:32:46;15.00;99.90
52211;DHT22;38179;52.756;6.906;2023-05-10T13:35:11;15.00;99.90
52211;DHT22;38179;52.756;6.906;2023-05-10T13:37:37;15.00;99.90
52211;DHT22;38179;52.756;6.906;2023-05-10T13:40:04;15.00;99.90
52211;DHT22;38179;52.756;6.906;2023-05-10T13:42:30;15.00;99.90
52211;DHT22;38179;52.756;6.906;2023-05-10T13:44:59;15.10;99.90
52211;DHT22;38179;52.756;6.906;2023-05-10T13:47:26;15.10;99.90
52211;DHT22;38179;52.756;6.906;2023-05-10T13:49:52;15.10;99.90
52211;DHT22;38179;52.756;6.906;2023-05-10T13:52:18;15.10;99.90
52211;DHT22;38179;52.756;6.906;2023-05-10T13:54:44;15.10;99.90
52211;DHT22;38179;52.756;6.906;2023-05-10T13:57:10;15.10;99.90
52211;DHT22;38179;52.756;6.906;2023-05-10T13:59:38;15.10;99.90
52211;DHT22;38179;52.756;6.906;2023-05-10T14:02:06;15.10;99.90
52211;DHT22;38179;52.756;6.906;2023-05-10T14:04:32;15.10;99.90
52211;DHT22;38179;52.756;6.906;2023-05-10T14:06:58;15.10;99.90
52211;DHT22;38179;52.756;6.906;2023-05-10T14:09:24;15.10;99.90
52211;DHT22;38179;52.756;6.906;2023-05-10T14:11:49;15.10;99.90
52211;DHT22;38179;52.756;6.906;2023-05-10T14:14:15;15.10;99.90
52211;DHT22;38179;52.756;6.906;2023-05-10T14:16:43;15.10;99.90
52211;DHT22;38179;52.756;6.906;2023-05-10T14:19:09;15.10;99.90
52211;DHT22;38179;52.756;6.906;2023-05-10T14:21:35;15.10;99.90
52211;DHT22;38179;52.756;6.906;2023-05-10T14:24:01;15.10;99.90
52211;DHT22;38179;52.756;6.906;2023-05-10T14:26:27;15.10;99.90
52211;DHT22;38179;52.756;6.906;2023-05-10T14:28:53;15.10;99.90
52211;DHT22;38179;52.756;6.906;2023-05-10T14:31:19;15.00;99.90
52211;DHT22;38179;52.756;6.906;2023-05-10T14:33:49;15.00;99.90
52211;DHT22;38179;52.756;6.906;2023-05-10T14:36:16;15.00;99.90
52211;DHT22;38179;52.756;6.906;2023-05-10T14:38:43;15.10;99.90
52211;DHT22;38179;52.756;6.906;2023-05-10T14:41:09;15.00;99.90
52211;DHT22;38179;52.756;6.906;2023-05-10T14:43:40;15.00;99.90
52211;DHT22;38179;52.756;6.906;2023-05-10T14:46:06;15.00;99.90
52211;DHT22;38179;52.756;6.906;2023-05-10T14:48:32;15.00;99.90
52211;DHT22;38179;52.756;6.906;2023-05-10T14:51:01;15.00;99.90
52211;DHT22;38179;52.756;6.906;2023-05-10T14:53:27;15.10;99.90
52211;DHT22;38179;52.756;6.906;2023-05-10T14:55:53;15.00;99.90
52211;DHT22;38179;52.756;6.906;2023-05-10T15:00:56;15.00;99.90
52211;DHT22;38179;52.756;6.906;2023-05-10T15:03:22;15.00;99.90
52211;DHT22;38179;52.756;6.906;2023-05-10T15:05:48;15.10;99.90
52211;DHT22;38179;52.756;6.906;2023-05-10T15:08:14;15.00;99.90
52211;DHT22;38179;52.756;6.906;2023-05-10T15:10:40;15.00;99.90
52211;DHT22;38179;52.756;6.906;2023-05-10T15:13:07;15.00;99.90
52211;DHT22;38179;52.756;6.906;2023-05-10T15:15:32;15.00;99.90
52211;DHT22;38179;52.756;6.906;2023-05-10T15:17:58;15.00;99.90
52211;DHT22;38179;52.756;6.906;2023-05-10T15:20:24;15.00;99.90
52211;DHT22;38179;52.756;6.906;2023-05-10T15:22:50;15.00;99.90
52211;DHT22;38179;52.756;6.906;2023-05-10T15:25:16;15.00;99.90
52211;DHT22;38179;52.756;6.906;2023-05-10T15:27:42;15.00;99.90
52211;DHT22;38179;52.756;6.906;2023-05-10T15:30:10;15.00;99.90
52211;DHT22;38179;52.756;6.906;2023-05-10T15:32:36;15.00;99.90
52211;DHT22;38179;52.756;6.906;2023-05-10T15:35:03;14.90;99.90
52211;DHT22;38179;52.756;6.906;2023-05-10T15:37:29;14.90;99.90
52211;DHT22;38179;52.756;6.906;2023-05-10T15:39:55;14.90;99.90
52211;DHT22;38179;52.756;6.906;2023-05-10T15:42:28;15.00;99.90
52211;DHT22;38179;52.756;6.906;2023-05-10T15:44:53;15.00;99.90
52211;DHT22;38179;52.756;6.906;2023-05-10T15:47:19;15.00;99.90
52211;DHT22;38179;52.756;6.906;2023-05-10T15:49:45;14.90;99.90
52211;DHT22;38179;52.756;6.906;2023-05-10T15:52:11;15.00;99.90
52211;DHT22;38179;52.756;6.906;2023-05-10T15:54:37;14.90;99.90
52211;DHT22;38179;52.756;6.906;2023-05-10T15:57:03;14.90;99.90
52211;DHT22;38179;52.756;6.906;2023-05-10T15:59:29;14.90;99.90
52211;DHT22;38179;52.756;6.906;2023-05-10T16:01:55;14.90;99.90
52211;DHT22;38179;52.756;6.906;2023-05-10T16:04:22;14.90;99.90
52211;DHT22;38179;52.756;6.906;2023-05-10T16:06:48;14.90;99.90
52211;DHT22;38179;52.756;6.906;2023-05-10T16:09:14;14.90;99.90
52211;DHT22;38179;52.756;6.906;2023-05-10T16:11:42;14.80;99.90
52211;DHT22;38179;52.756;6.906;2023-05-10T16:14:08;14.80;99.90